• Join FlightAware (Why Join?)
  • Login
  • US Flag 
09:23PM EDT


 

Airport Tracker/Info


-or-


 

Live Flight TrackerFlight Track Log ✈ VRD932 ✈ 16-May-2013 ✈ KSFO - KLAX

Flight Track Log - Related Links

Times and Time Zones

All times are in EDT time to prevent confusion due to time zone crossing. See the VRD932 flight status page for this flight to view local times or setup timezone preferences in your user account.

Time Position Orientation Groundspeed Altitude Reporting Facility
EDT Latitude Longitude Course Direction KTS MPH feet Rate Location/Type
08:08PM 37.6260 -122.3870 298° West 137 158 900  Level FlightAware
08:09PM 37.6330 -122.4060 295° West 151 174 1,800 1,620 Climbing FlightAware
08:09PM 37.6450 -122.4340 298° West 202 232 2,400 1,620 Climbing FlightAware
08:10PM 37.6560 -122.4620 296° West 234 269 3,300 2,820 Climbing FlightAware
08:10PM 37.6680 -122.5000 292° West 244 281 5,000 3,300 Climbing FlightAware
08:11PM 37.6620 -122.5230 252° West 256 295 5,800 3,120 Climbing FlightAware
08:11PM 37.6540 -122.5340 227° Southwest 267 307 6,300 2,640 Climbing FlightAware
08:11PM 37.6410 -122.5440 211° Southwest 280 322 6,900 2,880 Climbing FlightAware
08:11PM 37.6270 -122.5470 190° South 289 333 7,500 3,600 Climbing FlightAware
08:11PM 37.6000 -122.5380 165° South 297 342 8,700 3,600 Climbing FlightAware
08:12PM 37.5830 -122.5200 140° Southeast 303 349 9,600 2,580 Climbing FlightAware
08:12PM 37.5420 -122.4680 135° Southeast 334 384 11,100 2,280 Climbing FlightAware
08:13PM 37.4920 -122.4030 134° Southeast 361 415 12,900 2,580 Climbing FlightAware
08:14PM 37.4520 -122.3470 132° Southeast 368 423 14,600 2,520 Climbing FlightAware
08:14PM 37.3990 -122.2740 132° Southeast 387 445 16,300 2,400 Climbing FlightAware
08:15PM 37.3410 -122.1960 133° Southeast 400 460 18,200 2,460 Climbing FlightAware
08:16PM 37.2910 -122.1290 133° Southeast 411 473 19,800 2,280 Climbing FlightAware
08:17PM 37.2340 -122.0510 133° Southeast 418 481 21,500 2,400 Climbing FlightAware
08:17PM 37.1810 -121.9800 133° Southeast 416 479 23,200 1,920 Climbing FlightAware
08:18PM 37.1280 -121.9090 133° Southeast 434 499 24,100 1,620 Climbing FlightAware
08:19PM 37.0640 -121.8230 133° Southeast 442 509 25,500 1,860 Climbing FlightAware
08:19PM 37.0080 -121.7480 133° Southeast 445 512 26,800 1,680 Climbing FlightAware
08:20PM 36.9450 -121.6640 133° Southeast 453 521 27,900 1,500 Climbing FlightAware
08:21PM 36.8890 -121.5890 133° Southeast 457 526 29,000 1,320 Climbing FlightAware
08:21PM 36.8360 -121.5190 133° Southeast 463 533 29,700 1,320 Climbing FlightAware
08:22PM 36.7700 -121.4320 133° Southeast 466 536 30,800 1,920 Climbing FlightAware
08:23PM 36.7030 -121.3420 133° Southeast 452 520 32,500 1,980 Climbing FlightAware
08:24PM 36.6410 -121.2610 134° Southeast 443 510 33,800 1,680 Climbing FlightAware
08:24PM 36.5900 -121.1950 134° Southeast 437 503 34,800 900 Climbing FlightAware
08:25PM 36.5300 -121.1160 133° Southeast 452 520 35,000 120 Climbing FlightAware
08:26PM 36.4620 -121.0270 134° Southeast 454 522 35,000  Level FlightAware
08:26PM 36.4060 -120.9540 134° Southeast 450 518 35,000  Level FlightAware
08:27PM 36.3420 -120.8690 133° Southeast 450 518 35,000  Level FlightAware
08:28PM 36.2850 -120.7960 134° Southeast 451 519 35,000  Level FlightAware
08:28PM 36.2250 -120.7180 134° Southeast 452 520 35,000  Level FlightAware
08:29PM 36.1600 -120.6330 133° Southeast 451 519 35,000  Level FlightAware
08:30PM 36.1030 -120.5610 134° Southeast 451 519 35,000  Level FlightAware
08:31PM 36.0440 -120.4850 134° Southeast 451 519 35,000  Level FlightAware
08:31PM 35.9800 -120.4020 134° Southeast 451 519 35,000  Level FlightAware
08:32PM 35.9370 -120.3470 134° Southeast 451 519 35,000  Level FlightAware
08:33PM 35.8560 -120.2430 134° Southeast 450 518 35,000  Level FlightAware
08:33PM 35.8010 -120.1740 134° Southeast 451 519 35,000  Level FlightAware
08:34PM 35.7330 -120.0880 134° Southeast 454 522 35,000  Level FlightAware
08:35PM 35.6750 -120.0140 134° Southeast 456 525 35,000  Level FlightAware
08:35PM 35.6140 -119.9490 139° Southeast 444 511 35,000  Level FlightAware
08:36PM 35.5350 -119.8820 145° Southeast 444 511 35,000  Level FlightAware
08:37PM 35.4670 -119.8230 145° Southeast 443 510 35,000  Level FlightAware
08:38PM 35.3920 -119.7580 145° Southeast 442 509 35,000  Level FlightAware
08:38PM 35.3260 -119.7020 145° Southeast 443 510 35,000  Level FlightAware
08:39PM 35.2590 -119.6440 145° Southeast 445 512 35,000  Level FlightAware
08:40PM 35.1860 -119.5810 145° Southeast 447 514 35,000 -720 Level FlightAware
08:40PM 35.1280 -119.5320 145° Southeast 447 514 34,100 -720 Descending FlightAware
08:41PM 35.0600 -119.4720 144° Southeast 447 514 34,100  Level FlightAware
08:42PM 35.0030 -119.4210 144° Southeast 447 514 34,100 -3,900 Level FlightAware
08:42PM 34.9080 -119.3440 146° Southeast 466 536 28,900 -4,980 Descending FlightAware
08:43PM 34.8190 -119.2690 145° Southeast 453 521 26,700 -2,580 Descending FlightAware
08:44PM 34.7530 -119.2130 145° Southeast 441 507 25,100 -2,400 Descending FlightAware
08:45PM 34.6860 -119.1570 145° Southeast 425 489 23,500 -2,340 Descending FlightAware
08:45PM 34.6160 -119.0970 145° Southeast 416 479 21,800 -2,040 Descending FlightAware
08:46PM 34.5450 -119.0380 146° Southeast 407 468 20,100 -1,980 Descending FlightAware
08:47PM 34.4860 -118.9890 146° Southeast 401 461 18,700 -2,340 Descending FlightAware
08:47PM 34.4690 -118.9750 146° Southeast 398 458 17,200 -2,340 Descending FlightAware
08:48PM 34.3380 -118.8740 148° Southeast 362 417 15,400 -2,040 Descending FlightAware
08:49PM 34.2680 -118.8490 164° South 348 400 14,000 -1,800 Descending FlightAware
08:50PM 34.2230 -118.8320 163° South 340 391 13,200 -1,320 Descending FlightAware
08:50PM 34.1440 -118.8030 163° South 314 361 12,200 -1,380 Descending FlightAware
08:51PM 34.0880 -118.7820 163° South 310 357 11,100 -1,680 Descending FlightAware
08:52PM 34.0510 -118.7610 155° Southeast 320 368 10,300 -1,200 Descending FlightAware
08:52PM 34.0360 -118.7300 120° Southeast 324 373 10,000 -480 Descending FlightAware
08:52PM 34.0340 -118.7060 96° East 324 373 10,000  Level FlightAware
08:53PM 34.0280 -118.6320 96° East 318 366 10,000 -780 Level FlightAware
08:53PM 34.0230 -118.5780 96° East 317 365 9,100 -1,200 Descending FlightAware
08:54PM 34.0180 -118.5300 97° East 302 348 8,800 -660 Descending FlightAware
08:54PM 34.0140 -118.4880 97° East 283 326 8,500 -660 Descending FlightAware
08:55PM 34.0090 -118.4440 98° East 267 307 8,200 -900 Descending FlightAware
08:55PM 34.0110 -118.4000 87° East 259 298 7,700 -1,200 Descending FlightAware
08:56PM 34.0140 -118.3650 84° East 254 292 7,200 -1,320 Descending FlightAware
08:56PM 34.0170 -118.3220 85° East 246 283 6,500 -1,620 Descending FlightAware
08:57PM 34.0210 -118.2800 83° East 242 278 5,600 -1,500 Descending FlightAware
08:57PM 34.0240 -118.2450 84° East 240 276 5,000 -1,200 Descending FlightAware
08:58PM 34.0290 -118.2050 81° East 233 268 4,500 -900 Descending FlightAware
08:58PM 34.0320 -118.1690 84° East 218 251 4,200 -600 Descending FlightAware
08:59PM 34.0350 -118.1400 83° East 202 232 4,000 -780 Descending FlightAware
08:59PM 34.0270 -118.1120 109° East 191 220 3,500 -1,080 Descending FlightAware
08:59PM 34.0130 -118.1080 167° South 186 214 3,200 -1,020 Descending FlightAware
09:00PM 34.0030 -118.1130 203° Southwest 186 214 3,000 -900 Descending FlightAware
09:00PM 33.9880 -118.1350 231° Southwest 191 220 2,600 -480 Descending FlightAware
09:00PM 33.9770 -118.1640 245° Southwest 195 224 2,600 60 Level FlightAware
09:01PM 33.9740 -118.1860 261° West 183 211 2,700  Climbing FlightAware
09:01PM 33.9710 -118.2140 263° West 180 207 2,600 -120 Descending FlightAware
09:02PM 33.9680 -118.2470 264° West 178 205 2,600 -240 Level FlightAware
09:02PM 33.9660 -118.2650 262° West 177 204 2,400 -780 Descending FlightAware
09:03PM 33.9630 -118.2930 263° West 171 197 1,900 -840 Descending FlightAware
09:03PM 33.9600 -118.3200 262° West 146 168 1,500 -780 Descending FlightAware
09:04PM 33.9580 -118.3400 263° West 126 145 1,200 -720 Descending FlightAware
09:04PM 33.9570 -118.3550 265° West 124 143 900 -660 Descending FlightAware
09:05PM 33.9550 -118.3740 263° West 123 142 600 -360 Descending FlightAware
09:05PM 33.9530 -118.3900 261° West 123 142 600 -420 Level FlightAware
09:06PM 33.9503 -118.4200 261° West 129 148 200 -660 Descending Los Angeles Center
09:08PM 33.9425 -118.4081 72° East  Level Estimated